Time;durP1;ratioP1;P1;durP2;ratioP2;P2;SDS_P1;SDS_P2;PMS_P1;PMS_P2;Temp;Humidity;BMP_temperature;BMP_pressure;BME280_temperature;BME280_humidity;BME280_pressure;Samples;Min_cycle;Max_cycle;Signal;HPM_P1;HPM_P2
2020/12/27 00:01:13;;;;;;;7.68;1.63;;;3.40;99.90;;;;;;4972377;28;20037;-59
2020/12/27 00:03:42;;;;;;;2.80;1.40;;;3.40;99.90;;;;;;4999938;28;20018;-61
2020/12/27 00:06:07;;;;;;;4.65;1.52;;;3.40;99.90;;;;;;5030545;28;20017;-59
2020/12/27 00:08:33;;;;;;;2.72;1.45;;;3.40;99.90;;;;;;5031151;28;20029;-58
2020/12/27 00:10:59;;;;;;;2.20;1.08;;;3.40;99.90;;;;;;5026182;28;20514;-58
2020/12/27 00:13:24;;;;;;;1.45;0.90;;;3.40;99.90;;;;;;5021836;28;20037;-58
2020/12/27 00:15:50;;;;;;;1.13;0.80;;;3.40;99.90;;;;;;5015029;28;20033;-60
2020/12/27 00:18:15;;;;;;;3.40;1.38;;;3.40;99.90;;;;;;5023225;28;20029;-60
2020/12/27 00:20:41;;;;;;;1.48;0.90;;;3.40;99.90;;;;;;5015362;28;20033;-60
2020/12/27 00:23:07;;;;;;;1.90;1.10;;;3.40;99.90;;;;;;5016223;28;20032;-58
2020/12/27 00:25:38;;;;;;;3.95;0.95;;;3.50;99.90;;;;;;5013426;28;20028;-61
2020/12/27 00:28:04;;;;;;;2.45;0.80;;;3.50;99.90;;;;;;5013287;28;20094;-60
2020/12/27 00:30:29;;;;;;;4.75;0.90;;;3.50;99.90;;;;;;5033097;28;20594;-61
2020/12/27 00:32:55;;;;;;;3.55;0.95;;;3.50;99.90;;;;;;5010210;28;20019;-61
2020/12/27 00:35:20;;;;;;;1.45;0.93;;;3.50;99.90;;;;;;5023521;28;20642;-61
2020/12/27 00:37:46;;;;;;;3.85;0.90;;;3.50;99.90;;;;;;5031844;28;20704;-59
2020/12/27 00:40:12;;;;;;;2.15;0.98;;;3.50;99.90;;;;;;5017461;28;20053;-61
2020/12/27 00:42:37;;;;;;;3.55;1.02;;;3.50;99.90;;;;;;5025204;28;20756;-62
2020/12/27 00:45:05;;;;;;;2.80;1.00;;;3.40;99.90;;;;;;5027111;28;20025;-60
2020/12/27 00:47:31;;;;;;;1.55;0.73;;;3.50;99.90;;;;;;5029202;28;20090;-61
2020/12/27 00:49:57;;;;;;;2.38;0.65;;;3.50;99.90;;;;;;5022629;28;20116;-61
2020/12/27 00:52:22;;;;;;;2.78;0.90;;;3.50;99.90;;;;;;5030773;28;20126;-62
2020/12/27 00:54:48;;;;;;;2.88;1.15;;;3.50;99.90;;;;;;5026341;28;20034;-60
2020/12/27 00:57:14;;;;;;;1.58;0.90;;;3.50;99.90;;;;;;5023843;28;20123;-60
2020/12/27 00:59:40;;;;;;;1.05;0.70;;;3.50;99.90;;;;;;5028726;28;20546;-59
2020/12/27 01:02:05;;;;;;;1.98;0.82;;;3.60;99.90;;;;;;5011946;28;20117;-61
2020/12/27 01:04:31;;;;;;;0.75;0.63;;;3.60;99.90;;;;;;5022488;28;20030;-61
2020/12/27 01:06:57;;;;;;;3.75;1.13;;;3.60;99.90;;;;;;5027898;28;20029;-61
2020/12/27 01:09:22;;;;;;;0.93;0.80;;;3.50;99.90;;;;;;5032974;28;20052;-61
2020/12/27 01:11:48;;;;;;;1.00;0.68;;;3.60;99.90;;;;;;5010486;28;20025;-60
2020/12/27 01:14:13;;;;;;;1.85;0.60;;;3.60;99.90;;;;;;5016518;28;20564;-61
2020/12/27 01:16:39;;;;;;;1.73;0.80;;;3.60;99.90;;;;;;5010201;28;20169;-62
2020/12/27 01:19:05;;;;;;;2.33;0.77;;;3.60;99.90;;;;;;5012174;28;20026;-61
2020/12/27 01:21:35;;;;;;;0.70;0.60;;;3.60;99.90;;;;;;5008169;28;20029;-61
2020/12/27 01:24:01;;;;;;;1.98;0.90;;;3.60;99.90;;;;;;5020128;28;20398;-59
2020/12/27 01:26:31;;;;;;;4.60;0.95;;;3.60;99.90;;;;;;5022402;28;20033;-61
2020/12/27 01:28:57;;;;;;;1.65;0.70;;;3.60;99.90;;;;;;5020320;28;20040;-60
2020/12/27 01:31:24;;;;;;;1.52;0.60;;;3.70;99.90;;;;;;5021042;28;20400;-60
2020/12/27 01:33:49;;;;;;;3.08;1.00;;;3.70;99.90;;;;;;5029552;28;20125;-60
2020/12/27 01:36:33;;;;;;;1.33;0.60;;;3.60;99.90;;;;;;5022225;28;20507;-60
2020/12/27 01:39:01;;;;;;;3.15;0.95;;;3.60;99.90;;;;;;5028685;28;20044;-61
2020/12/27 01:41:26;;;;;;;1.92;0.75;;;3.60;99.90;;;;;;5016399;28;20026;-61
2020/12/27 01:44:09;;;;;;;1.73;0.60;;;3.60;99.90;;;;;;5018531;28;20038;-60
2020/12/27 01:46:36;;;;;;;2.15;0.70;;;3.60;99.90;;;;;;5018627;28;20040;-60
2020/12/27 01:49:03;;;;;;;1.63;0.65;;;3.60;99.90;;;;;;5040399;28;20590;-57
2020/12/27 01:51:29;;;;;;;1.13;0.73;;;3.60;99.90;;;;;;5046720;28;20546;-61
2020/12/27 01:53:55;;;;;;;0.98;0.52;;;3.60;99.90;;;;;;5034766;28;20095;-61
2020/12/27 01:56:32;;;;;;;0.60;0.60;;;3.60;99.90;;;;;;5022399;28;20026;-60
2020/12/27 01:59:03;;;;;;;2.17;0.60;;;3.60;99.90;;;;;;5013823;28;20048;-61
2020/12/27 02:01:30;;;;;;;0.57;0.57;;;3.60;99.90;;;;;;4999748;28;20077;-60
2020/12/27 02:03:56;;;;;;;1.23;0.70;;;3.60;99.90;;;;;;5022975;28;20650;-60
2020/12/27 02:06:21;;;;;;;1.27;0.65;;;3.60;99.90;;;;;;5022652;28;20088;-60
2020/12/27 02:08:50;;;;;;;2.65;1.13;;;3.60;99.90;;;;;;5037516;28;20033;-60
2020/12/27 02:11:18;;;;;;;0.85;0.75;;;3.50;99.90;;;;;;5031421;28;20021;-60
2020/12/27 02:13:48;;;;;;;1.35;0.90;;;3.50;99.90;;;;;;5026298;28;20042;-60
2020/12/27 02:16:18;;;;;;;1.40;0.90;;;3.50;99.90;;;;;;5026013;28;20485;-61
2020/12/27 02:18:44;;;;;;;1.48;0.60;;;3.50;99.90;;;;;;5031896;28;20104;-60
2020/12/27 02:21:09;;;;;;;2.03;1.05;;;3.50;99.90;;;;;;5026415;28;20108;-61
2020/12/27 02:23:37;;;;;;;3.08;0.70;;;3.50;99.90;;;;;;5025171;28;20017;-61
2020/12/27 02:26:04;;;;;;;2.97;0.70;;;3.50;99.90;;;;;;5028165;28;20029;-61
2020/12/27 02:28:29;;;;;;;1.65;0.73;;;3.50;99.90;;;;;;5028887;28;20041;-61
2020/12/27 02:30:55;;;;;;;1.20;0.80;;;3.50;99.90;;;;;;5029949;28;20107;-60
2020/12/27 02:33:20;;;;;;;1.17;0.70;;;3.50;99.90;;;;;;5039387;28;20376;-60
2020/12/27 02:35:46;;;;;;;1.20;0.70;;;3.50;99.90;;;;;;5037147;28;20643;-61
2020/12/27 02:38:11;;;;;;;4.00;0.70;;;3.40;99.90;;;;;;5040673;28;20104;-61
2020/12/27 02:40:41;;;;;;;3.10;0.70;;;3.50;99.90;;;;;;5023177;28;20032;-59
2020/12/27 02:43:06;;;;;;;1.17;0.65;;;3.40;99.90;;;;;;5035560;28;20020;-60
2020/12/27 02:45:32;;;;;;;3.03;0.70;;;3.40;99.90;;;;;;5034345;28;20026;-61
2020/12/27 02:47:57;;;;;;;2.47;0.88;;;3.40;99.90;;;;;;5037167;28;20021;-60
2020/12/27 02:50:23;;;;;;;1.45;0.77;;;3.40;99.90;;;;;;5031240;28;20041;-61
2020/12/27 02:52:48;;;;;;;2.58;1.00;;;3.30;99.90;;;;;;5032712;28;20634;-61
2020/12/27 02:55:14;;;;;;;2.80;1.15;;;3.30;99.90;;;;;;5034255;28;20387;-60
2020/12/27 02:57:39;;;;;;;2.20;0.95;;;3.20;99.90;;;;;;5019744;28;20550;-60
2020/12/27 03:00:06;;;;;;;0.73;0.60;;;3.20;99.90;;;;;;5034793;28;20017;-60
2020/12/27 03:02:31;;;;;;;1.10;0.70;;;3.20;99.90;;;;;;5021036;28;20049;-59
2020/12/27 03:04:57;;;;;;;1.40;0.73;;;3.20;99.90;;;;;;5035844;28;20025;-60
2020/12/27 03:07:22;;;;;;;2.03;0.80;;;3.20;99.90;;;;;;5035659;28;20021;-60
2020/12/27 03:09:48;;;;;;;3.13;1.30;;;3.30;99.90;;;;;;5034006;28;20110;-60
2020/12/27 03:12:13;;;;;;;3.20;0.73;;;3.30;99.90;;;;;;5036656;28;20449;-60
2020/12/27 03:14:39;;;;;;;1.25;0.85;;;3.30;99.90;;;;;;5034559;28;20112;-61
2020/12/27 03:17:04;;;;;;;1.55;0.68;;;3.30;99.90;;;;;;5037826;28;20021;-59
2020/12/27 03:19:30;;;;;;;1.20;0.73;;;3.30;99.90;;;;;;5038263;28;20025;-60
2020/12/27 03:21:56;;;;;;;2.85;0.90;;;3.30;99.90;;;;;;5004833;28;20075;-59
2020/12/27 03:24:21;;;;;;;1.45;0.63;;;3.40;99.90;;;;;;5025568;28;20017;-60
2020/12/27 03:26:47;;;;;;;1.77;1.30;;;3.40;99.90;;;;;;5027691;28;20084;-60
2020/12/27 03:29:12;;;;;;;1.75;1.30;;;3.40;99.90;;;;;;5035511;28;20025;-59
2020/12/27 03:31:38;;;;;;;3.42;1.02;;;3.40;99.90;;;;;;5037643;28;20687;-61
2020/12/27 03:34:04;;;;;;;5.38;1.02;;;3.40;99.90;;;;;;5039279;28;20025;-60
2020/12/27 03:36:29;;;;;;;1.33;0.80;;;3.40;99.90;;;;;;5030706;28;20030;-60
2020/12/27 03:38:55;;;;;;;2.25;0.80;;;3.40;99.90;;;;;;5033361;28;20010;-60
2020/12/27 03:41:20;;;;;;;1.00;0.63;;;3.30;99.90;;;;;;5030291;28;20041;-60
2020/12/27 03:43:46;;;;;;;4.82;1.77;;;3.30;99.90;;;;;;5031637;28;20095;-59
2020/12/27 03:46:12;;;;;;;3.63;0.80;;;3.30;99.90;;;;;;5028963;28;20025;-60
2020/12/27 03:48:38;;;;;;;3.42;0.73;;;3.30;99.90;;;;;;5037015;28;20028;-58
2020/12/27 03:51:03;;;;;;;1.90;0.80;;;3.30;99.90;;;;;;5027873;28;20041;-60
2020/12/27 03:53:29;;;;;;;1.83;0.70;;;3.30;99.90;;;;;;5038345;28;20482;-60
2020/12/27 03:55:54;;;;;;;0.90;0.57;;;3.30;99.90;;;;;;5030958;28;20045;-60
2020/12/27 03:58:20;;;;;;;3.05;0.82;;;3.30;99.90;;;;;;5033660;28;20044;-59
2020/12/27 04:00:45;;;;;;;1.25;0.70;;;3.30;99.90;;;;;;5012652;28;20049;-59
2020/12/27 04:03:11;;;;;;;1.45;0.60;;;3.30;99.90;;;;;;5040832;28;20017;-57
2020/12/27 04:05:37;;;;;;;1.52;0.73;;;3.40;99.90;;;;;;5030891;28;20140;-60
2020/12/27 04:08:02;;;;;;;1.63;1.00;;;3.40;99.90;;;;;;5037980;28;20101;-60
2020/12/27 04:10:28;;;;;;;1.98;0.80;;;3.40;99.90;;;;;;5030323;28;20025;-60
2020/12/27 04:12:54;;;;;;;2.08;0.55;;;3.40;99.90;;;;;;5033215;28;20505;-60
2020/12/27 04:15:19;;;;;;;1.65;0.68;;;3.40;99.90;;;;;;5032309;28;20034;-60
2020/12/27 04:17:45;;;;;;;1.75;0.70;;;3.40;99.90;;;;;;5031840;28;20021;-61
2020/12/27 04:20:10;;;;;;;3.55;0.80;;;3.40;99.90;;;;;;5031290;28;20029;-60
2020/12/27 04:22:36;;;;;;;1.35;0.73;;;3.30;99.90;;;;;;5037381;28;20052;-60
2020/12/27 04:25:01;;;;;;;2.10;0.77;;;3.30;99.90;;;;;;5033815;28;20049;-59
2020/12/27 04:27:27;;;;;;;2.20;0.80;;;3.30;99.90;;;;;;5035909;28;20071;-60
2020/12/27 04:29:53;;;;;;;2.03;0.90;;;3.30;99.90;;;;;;5024778;28;20096;-60
2020/12/27 04:32:18;;;;;;;1.60;0.68;;;3.30;99.90;;;;;;5039729;28;20025;-60
2020/12/27 04:34:44;;;;;;;3.38;0.60;;;3.30;99.90;;;;;;5036831;28;20048;-60
2020/12/27 04:37:09;;;;;;;1.30;0.80;;;3.30;99.90;;;;;;5034425;28;20027;-60
2020/12/27 04:39:35;;;;;;;1.02;0.65;;;3.40;99.90;;;;;;5034893;28;20036;-59
2020/12/27 04:42:01;;;;;;;2.45;0.70;;;3.40;99.90;;;;;;5034352;28;20025;-60
2020/12/27 04:44:27;;;;;;;1.27;0.70;;;3.40;99.90;;;;;;5030832;28;20036;-60
2020/12/27 04:46:53;;;;;;;1.65;0.70;;;3.40;99.90;;;;;;5035908;28;20075;-59
2020/12/27 04:49:19;;;;;;;3.17;1.10;;;3.40;99.90;;;;;;5028733;28;20037;-60
2020/12/27 04:51:47;;;;;;;1.05;0.60;;;3.40;99.90;;;;;;5050925;28;20091;-60
2020/12/27 04:54:13;;;;;;;1.13;0.80;;;3.40;99.90;;;;;;5026451;28;20517;-60
2020/12/27 04:56:41;;;;;;;3.08;1.10;;;3.40;99.90;;;;;;5029618;28;20652;-60
2020/12/27 04:59:07;;;;;;;1.10;0.60;;;3.40;99.90;;;;;;5022613;28;20017;-60
2020/12/27 05:01:32;;;;;;;1.02;0.70;;;3.40;99.90;;;;;;5013051;28;20082;-59
2020/12/27 05:03:58;;;;;;;1.77;0.80;;;3.40;99.90;;;;;;5033325;28;20037;-58
2020/12/27 05:06:24;;;;;;;1.73;0.70;;;3.40;99.90;;;;;;5028077;28;20021;-60
2020/12/27 05:08:49;;;;;;;2.70;0.80;;;3.50;99.90;;;;;;5037983;28;20108;-60
2020/12/27 05:11:16;;;;;;;2.60;0.90;;;3.50;99.90;;;;;;5027454;28;20025;-60
2020/12/27 05:13:45;;;;;;;1.73;0.88;;;3.40;99.90;;;;;;5036307;28;20111;-60
2020/12/27 05:16:13;;;;;;;0.63;0.50;;;3.40;99.90;;;;;;5029229;28;20032;-60
2020/12/27 05:18:39;;;;;;;1.27;0.73;;;3.50;99.90;;;;;;5042247;28;20064;-60
2020/12/27 05:21:05;;;;;;;1.92;0.70;;;3.50;99.90;;;;;;5024198;28;20098;-60
2020/12/27 05:23:31;;;;;;;3.17;0.80;;;3.50;99.90;;;;;;5034640;28;20088;-60
2020/12/27 05:25:56;;;;;;;1.38;0.75;;;3.50;99.90;;;;;;5035801;28;20488;-60
2020/12/27 05:28:23;;;;;;;1.65;0.70;;;3.50;99.90;;;;;;5028299;28;20057;-61
2020/12/27 05:30:49;;;;;;;2.55;0.90;;;3.50;99.90;;;;;;5035104;28;20396;-60
2020/12/27 05:33:16;;;;;;;3.10;0.90;;;3.50;99.90;;;;;;5037631;28;20025;-60
2020/12/27 05:35:42;;;;;;;1.30;0.70;;;3.50;99.90;;;;;;5035150;28;20061;-59
2020/12/27 05:38:10;;;;;;;1.45;0.82;;;3.50;99.90;;;;;;5036436;28;20049;-60
2020/12/27 05:40:38;;;;;;;1.33;0.50;;;3.50;99.90;;;;;;5032992;28;20022;-60
2020/12/27 05:43:13;;;;;;;1.27;0.60;;;3.50;99.90;;;;;;5039542;28;20117;-60
2020/12/27 05:45:39;;;;;;;2.17;0.60;;;3.60;99.90;;;;;;5032247;28;20102;-60
2020/12/27 05:48:05;;;;;;;1.38;0.60;;;3.60;99.90;;;;;;5033256;28;20490;-60
2020/12/27 05:50:38;;;;;;;1.23;0.70;;;3.60;99.90;;;;;;5029452;28;20040;-60
2020/12/27 05:53:14;;;;;;;1.13;0.82;;;3.60;99.90;;;;;;5037011;28;20104;-59
2020/12/27 05:55:43;;;;;;;1.33;0.73;;;3.60;99.90;;;;;;5025706;28;20033;-60
2020/12/27 05:58:10;;;;;;;9.68;3.08;;;3.60;99.90;;;;;;5026554;28;20668;-60
2020/12/27 06:00:36;;;;;;;41.97;15.75;;;3.60;99.90;;;;;;5029840;28;20029;-60
2020/12/27 06:03:02;;;;;;;5.65;2.05;;;3.60;99.90;;;;;;5022453;28;20033;-60
2020/12/27 06:05:55;;;;;;;18.65;7.57;;;3.60;99.90;;;;;;5031196;28;20037;-60
2020/12/27 06:08:27;;;;;;;5.82;3.10;;;3.50;99.90;;;;;;5026737;28;20025;-60
2020/12/27 06:10:57;;;;;;;26.05;8.32;;;3.50;99.90;;;;;;5029454;28;20131;-61
2020/12/27 06:13:25;;;;;;;3.38;1.48;;;3.60;99.90;;;;;;5023717;28;20079;-60
2020/12/27 06:15:56;;;;;;;2.17;1.05;;;3.60;99.90;;;;;;5036053;28;20117;-57
2020/12/27 06:18:28;;;;;;;6.65;2.15;;;3.60;99.90;;;;;;5042735;28;20055;-60
2020/12/27 06:21:09;;;;;;;5.57;2.83;;;3.60;99.90;;;;;;5030665;28;20021;-60
2020/12/27 06:23:35;;;;;;;3.78;2.15;;;3.60;99.90;;;;;;5033026;28;20187;-60
2020/12/27 06:26:03;;;;;;;1.85;1.15;;;3.60;99.90;;;;;;5038013;28;20025;-60
2020/12/27 06:28:33;;;;;;;4.50;1.40;;;3.60;99.90;;;;;;5032496;28;20037;-61
2020/12/27 06:31:06;;;;;;;5.10;2.63;;;3.70;99.90;;;;;;5026804;28;20525;-59
2020/12/27 06:33:41;;;;;;;1.63;0.75;;;3.70;99.90;;;;;;5033937;28;20116;-58
2020/12/27 06:36:07;;;;;;;1.85;1.10;;;3.70;99.90;;;;;;5032962;28;20445;-60
2020/12/27 06:38:33;;;;;;;1.05;0.60;;;3.70;99.90;;;;;;5039051;28;20025;-61
2020/12/27 06:41:08;;;;;;;1.92;0.50;;;3.70;99.90;;;;;;5035796;28;20498;-60
2020/12/27 06:43:42;;;;;;;0.77;0.70;;;3.80;99.90;;;;;;5033105;28;20045;-59
2020/12/27 06:46:26;;;;;;;1.02;0.52;;;3.80;99.90;;;;;;5025496;28;20075;-60
2020/12/27 06:49:13;;;;;;;1.90;0.40;;;3.90;99.90;;;;;;5037272;28;20114;-60
2020/12/27 06:51:42;;;;;;;3.00;0.52;;;3.90;99.90;;;;;;5037524;28;20021;-60
2020/12/27 06:54:08;;;;;;;1.48;0.47;;;3.90;99.90;;;;;;5033086;28;20060;-59
2020/12/27 06:56:39;;;;;;;0.32;0.30;;;3.90;99.90;;;;;;5037506;28;20512;-60
2020/12/27 06:59:05;;;;;;;0.68;0.43;;;3.90;99.90;;;;;;5034523;28;20021;-60
2020/12/27 07:01:31;;;;;;;0.20;0.20;;;3.90;99.90;;;;;;5016700;28;20139;-58
2020/12/27 07:04:17;;;;;;;1.88;1.08;;;3.90;99.90;;;;;;5037499;28;20082;-60
2020/12/27 07:06:47;;;;;;;3.35;1.50;;;4.00;99.90;;;;;;5026621;28;20060;-60
2020/12/27 07:09:22;;;;;;;3.50;1.38;;;3.90;99.90;;;;;;5041497;28;20033;-61
2020/12/27 07:12:10;;;;;;;3.78;0.70;;;3.90;99.90;;;;;;5030131;28;20053;-60
2020/12/27 07:14:38;;;;;;;5.25;1.73;;;3.90;99.90;;;;;;5033483;28;20037;-59
2020/12/27 07:17:06;;;;;;;3.90;1.63;;;4.00;99.90;;;;;;5032842;28;20021;-61
2020/12/27 07:19:33;;;;;;;6.90;2.67;;;3.90;99.90;;;;;;5039578;28;20458;-61
2020/12/27 07:22:10;;;;;;;5.82;2.67;;;4.00;99.90;;;;;;5030169;28;20021;-59
2020/12/27 07:24:38;;;;;;;3.47;1.80;;;4.00;99.90;;;;;;5030637;28;20035;-59
2020/12/27 07:27:04;;;;;;;1.58;0.32;;;4.00;99.90;;;;;;5032982;28;20051;-61
2020/12/27 07:29:32;;;;;;;0.73;0.40;;;4.10;99.90;;;;;;5033605;28;20114;-60
2020/12/27 07:32:00;;;;;;;2.15;0.93;;;4.10;99.90;;;;;;5035425;28;20034;-60
2020/12/27 07:34:28;;;;;;;6.25;2.28;;;4.10;99.90;;;;;;5028342;28;20164;-60
2020/12/27 07:37:05;;;;;;;4.45;1.35;;;4.10;99.90;;;;;;5034579;28;20487;-60
2020/12/27 07:39:52;;;;;;;8.63;2.17;;;4.10;99.90;;;;;;5034509;28;20021;-60
2020/12/27 07:42:20;;;;;;;16.30;5.78;;;4.10;99.90;;;;;;5037807;28;20024;-60
2020/12/27 07:44:46;;;;;;;4.05;1.70;;;4.20;99.90;;;;;;5032896;28;20100;-60
2020/12/27 07:47:11;;;;;;;10.25;4.10;;;4.20;99.90;;;;;;5020175;28;20108;-60
2020/12/27 07:49:37;;;;;;;1.80;1.08;;;4.20;99.90;;;;;;5019924;28;20493;-61
2020/12/27 07:52:02;;;;;;;3.03;1.10;;;4.20;99.90;;;;;;5025591;28;20096;-60
2020/12/27 07:54:28;;;;;;;3.78;1.70;;;4.30;99.90;;;;;;5030305;28;20362;-61
2020/12/27 07:56:53;;;;;;;2.42;1.13;;;4.30;99.90;;;;;;5034669;28;20770;-61
2020/12/27 07:59:19;;;;;;;1.60;0.98;;;4.30;99.90;;;;;;5034363;28;20117;-59
2020/12/27 08:01:45;;;;;;;0.65;0.40;;;4.30;99.90;;;;;;5038222;28;20097;-60
2020/12/27 08:04:10;;;;;;;6.85;1.40;;;4.30;99.90;;;;;;5034354;28;20067;-60
2020/12/27 08:06:39;;;;;;;0.82;0.43;;;4.30;99.90;;;;;;5029054;28;20034;-60
2020/12/27 08:09:05;;;;;;;2.50;1.23;;;4.40;99.90;;;;;;5026629;28;20073;-60
2020/12/27 08:11:32;;;;;;;3.17;1.25;;;4.30;99.90;;;;;;5026660;28;20057;-61
2020/12/27 08:14:02;;;;;;;4.47;1.90;;;4.30;99.90;;;;;;5037322;28;20518;-60
2020/12/27 08:16:29;;;;;;;1.85;1.13;;;4.30;99.90;;;;;;5029885;28;20030;-59
2020/12/27 08:19:01;;;;;;;0.82;0.45;;;4.30;99.90;;;;;;5036078;28;20387;-60
2020/12/27 08:21:27;;;;;;;1.35;0.73;;;4.30;99.90;;;;;;5030780;28;20479;-60
2020/12/27 08:24:05;;;;;;;1.48;0.70;;;4.30;99.90;;;;;;5036603;28;20035;-58
2020/12/27 08:26:32;;;;;;;2.05;0.30;;;4.30;99.90;;;;;;5032483;28;20034;-60
2020/12/27 08:29:20;;;;;;;0.65;0.45;;;4.30;99.90;;;;;;5031514;28;20509;-60
2020/12/27 08:31:47;;;;;;;0.70;0.50;;;4.30;99.90;;;;;;5034328;28;20055;-61
2020/12/27 08:34:24;;;;;;;1.52;0.88;;;4.40;99.90;;;;;;5032790;28;20073;-60
2020/12/27 08:36:55;;;;;;;1.27;0.70;;;4.40;99.90;;;;;;5028983;28;20108;-60
2020/12/27 08:39:40;;;;;;;0.82;0.30;;;4.40;99.90;;;;;;5034370;28;20041;-59
2020/12/27 08:42:17;;;;;;;3.97;2.03;;;4.40;99.90;;;;;;5036057;28;20472;-60
2020/12/27 08:44:52;;;;;;;17.90;5.72;;;4.40;99.90;;;;;;5032210;28;20103;-61
2020/12/27 08:47:39;;;;;;;8.68;3.00;;;4.50;99.90;;;;;;5033907;28;20049;-59
2020/12/27 08:50:13;;;;;;;6.35;2.08;;;4.50;99.90;;;;;;5032773;28;20401;-60
2020/12/27 08:52:40;;;;;;;4.10;1.92;;;4.50;99.90;;;;;;5025895;28;20044;-60
2020/12/27 08:55:13;;;;;;;2.13;0.50;;;4.50;99.90;;;;;;5017916;28;20064;-61
2020/12/27 08:57:42;;;;;;;0.95;0.70;;;4.60;99.90;;;;;;5033907;28;20078;-59
2020/12/27 09:00:11;;;;;;;2.47;1.52;;;4.50;99.90;;;;;;5020332;28;20095;-60
2020/12/27 09:02:38;;;;;;;17.13;2.03;;;4.50;99.90;;;;;;5018741;28;20056;-59
2020/12/27 09:05:05;;;;;;;0.95;0.60;;;4.50;99.90;;;;;;5030553;28;20018;-59
2020/12/27 09:07:36;;;;;;;0.60;0.47;;;4.50;99.90;;;;;;5023199;28;20037;-60
2020/12/27 09:10:14;;;;;;;2.38;0.50;;;4.50;99.90;;;;;;5022879;28;20028;-60
2020/12/27 09:13:00;;;;;;;0.57;0.50;;;4.50;99.90;;;;;;5021896;28;20083;-61
2020/12/27 09:15:33;;;;;;;2.05;1.30;;;4.50;99.90;;;;;;5020526;28;20037;-60
2020/12/27 09:18:02;;;;;;;1.65;0.50;;;4.50;99.90;;;;;;5042127;28;20029;-59
2020/12/27 09:20:29;;;;;;;2.92;0.68;;;4.50;99.90;;;;;;5034466;28;20076;-59
2020/12/27 09:22:55;;;;;;;1.33;0.57;;;4.50;99.90;;;;;;5029569;28;20070;-60
2020/12/27 09:25:22;;;;;;;2.08;0.80;;;4.50;99.90;;;;;;5028532;28;20017;-60
2020/12/27 09:27:49;;;;;;;2.15;1.00;;;4.50;99.90;;;;;;5023334;28;20026;-59
2020/12/27 09:30:23;;;;;;;7.53;0.60;;;4.50;99.90;;;;;;5028902;28;20537;-60
2020/12/27 09:32:50;;;;;;;1.48;0.50;;;4.50;99.90;;;;;;5043912;28;20112;-59
2020/12/27 09:35:19;;;;;;;0.70;0.38;;;4.50;99.90;;;;;;5036792;28;20032;-60
2020/12/27 09:37:45;;;;;;;0.82;0.40;;;4.50;99.90;;;;;;5019926;28;20029;-59
2020/12/27 09:40:11;;;;;;;0.75;0.40;;;4.60;99.90;;;;;;5038691;28;20021;-60
2020/12/27 09:42:36;;;;;;;2.25;0.93;;;4.50;99.90;;;;;;5024151;28;20025;-59
2020/12/27 09:45:25;;;;;;;0.40;0.40;;;4.60;99.90;;;;;;5026599;28;20486;-61
2020/12/27 09:47:54;;;;;;;1.90;0.70;;;4.60;99.90;;;;;;5035057;28;20022;-60
2020/12/27 09:50:32;;;;;;;1.75;0.60;;;4.60;99.90;;;;;;5035806;28;20046;-60
2020/12/27 09:52:58;;;;;;;1.98;1.27;;;4.60;99.90;;;;;;5034121;28;20510;-61
2020/12/27 09:55:24;;;;;;;1.83;0.65;;;4.60;99.90;;;;;;5036748;28;20029;-60
2020/12/27 09:57:50;;;;;;;0.85;0.40;;;4.60;99.90;;;;;;5035536;28;20025;-61
2020/12/27 10:00:15;;;;;;;10.85;3.90;;;4.60;99.90;;;;;;5036743;28;20025;-61
2020/12/27 10:02:41;;;;;;;4.03;1.65;;;4.60;99.90;;;;;;5014682;28;20095;-60
2020/12/27 10:05:07;;;;;;;2.47;1.10;;;4.60;99.90;;;;;;5020151;28;20025;-60
2020/12/27 10:07:33;;;;;;;1.92;0.95;;;4.60;99.90;;;;;;5015848;28;20026;-61
2020/12/27 10:09:58;;;;;;;8.65;5.00;;;4.70;99.90;;;;;;5016522;28;20026;-60
2020/12/27 10:12:24;;;;;;;3.05;1.88;;;4.70;99.90;;;;;;5019213;28;20033;-61
2020/12/27 10:14:50;;;;;;;3.30;1.20;;;4.70;99.90;;;;;;5019728;28;20034;-60
2020/12/27 10:17:16;;;;;;;7.80;3.05;;;4.70;99.90;;;;;;5022697;28;20025;-60
2020/12/27 10:19:41;;;;;;;7.15;2.45;;;4.70;99.90;;;;;;5017599;28;20057;-60
2020/12/27 10:22:07;;;;;;;4.95;1.20;;;4.70;99.90;;;;;;5022832;28;20028;-59
2020/12/27 10:24:33;;;;;;;3.47;1.33;;;4.70;99.90;;;;;;5019397;28;20032;-61
2020/12/27 10:27:01;;;;;;;2.38;0.98;;;4.70;99.90;;;;;;5025515;28;20046;-60
2020/12/27 10:29:26;;;;;;;2.25;0.70;;;4.70;99.90;;;;;;5017023;28;20026;-59
2020/12/27 10:31:54;;;;;;;6.10;1.88;;;4.70;99.90;;;;;;5020089;28;20752;-60
2020/12/27 10:34:20;;;;;;;4.70;1.77;;;4.70;99.90;;;;;;5020638;28;20034;-61
2020/12/27 10:36:47;;;;;;;5.40;2.38;;;4.70;99.90;;;;;;5023337;28;20104;-60
2020/12/27 10:39:14;;;;;;;3.38;1.50;;;4.70;99.90;;;;;;5026210;28;20043;-56
2020/12/27 10:41:44;;;;;;;4.55;2.47;;;4.70;99.90;;;;;;5017327;28;20026;-59
2020/12/27 10:44:10;;;;;;;3.22;1.83;;;4.70;99.90;;;;;;5018541;28;20027;-59
2020/12/27 10:46:36;;;;;;;3.15;1.27;;;4.70;99.90;;;;;;5020110;28;20116;-60
2020/12/27 10:49:02;;;;;;;5.40;2.10;;;4.70;99.90;;;;;;5021925;28;20037;-60
2020/12/27 10:51:37;;;;;;;3.65;1.45;;;4.70;99.90;;;;;;5021006;28;20088;-60
2020/12/27 10:54:04;;;;;;;6.20;1.90;;;4.70;99.90;;;;;;5023067;28;20461;-60
2020/12/27 10:56:29;;;;;;;4.40;2.20;;;4.70;99.90;;;;;;5018810;28;20033;-59
2020/12/27 10:58:55;;;;;;;1.15;0.82;;;4.80;99.90;;;;;;5010869;28;20021;-59
2020/12/27 11:01:21;;;;;;;5.32;2.38;;;4.80;99.90;;;;;;4992589;28;20030;-58
2020/12/27 11:03:46;;;;;;;3.00;0.70;;;4.80;99.90;;;;;;5026478;28;20475;-60
2020/12/27 11:06:12;;;;;;;4.47;1.50;;;4.80;99.90;;;;;;5019698;28;20048;-60
2020/12/27 11:08:38;;;;;;;7.22;2.05;;;4.80;99.90;;;;;;5020421;28;20054;-60
2020/12/27 11:11:03;;;;;;;4.30;1.98;;;4.80;99.90;;;;;;5020053;28;20057;-60
2020/12/27 11:13:29;;;;;;;4.07;1.77;;;4.80;99.90;;;;;;5026192;28;20034;-59
2020/12/27 11:15:54;;;;;;;1.98;1.27;;;4.80;99.90;;;;;;5027780;28;20117;-60
2020/12/27 11:18:20;;;;;;;2.75;1.20;;;4.80;99.90;;;;;;5028941;28;20387;-60
2020/12/27 11:20:46;;;;;;;2.92;0.90;;;4.80;99.90;;;;;;5033908;28;20017;-60
2020/12/27 11:23:11;;;;;;;3.35;1.63;;;4.80;99.90;;;;;;5025522;28;20090;-60
2020/12/27 11:25:37;;;;;;;2.22;1.30;;;4.80;99.90;;;;;;5029490;28;20033;-58
2020/12/27 11:28:02;;;;;;;2.38;1.45;;;4.80;99.90;;;;;;5027808;28;20506;-60
2020/12/27 11:30:28;;;;;;;2.05;1.13;;;4.80;99.90;;;;;;5012971;28;20061;-60
2020/12/27 11:32:54;;;;;;;1.73;0.88;;;4.80;99.90;;;;;;5014486;28;20092;-61
2020/12/27 11:35:19;;;;;;;1.13;0.70;;;4.90;99.90;;;;;;5012008;28;20030;-59
2020/12/27 11:37:45;;;;;;;1.50;0.70;;;4.90;99.90;;;;;;5040435;28;20434;-60
2020/12/27 11:40:11;;;;;;;0.73;0.50;;;4.90;99.90;;;;;;5014155;28;20100;-60
2020/12/27 11:42:37;;;;;;;3.10;0.60;;;4.90;99.90;;;;;;5011339;28;20026;-59
2020/12/27 11:45:04;;;;;;;4.03;1.92;;;5.00;99.90;;;;;;5017076;28;20458;-59
2020/12/27 11:47:29;;;;;;;2.45;1.35;;;5.00;99.90;;;;;;5019237;28;20029;-59
2020/12/27 11:49:55;;;;;;;3.25;1.40;;;5.00;99.90;;;;;;5015517;28;20030;-60
2020/12/27 11:52:24;;;;;;;6.63;3.05;;;5.00;99.90;;;;;;5018009;28;20029;-59
2020/12/27 11:54:50;;;;;;;3.53;1.40;;;5.00;99.90;;;;;;5016148;28;20633;-56
2020/12/27 11:57:16;;;;;;;2.55;1.88;;;5.00;99.90;;;;;;5015156;28;20562;-59
2020/12/27 11:59:42;;;;;;;3.15;1.33;;;5.00;99.90;;;;;;5018674;28;20113;-58
2020/12/27 12:02:07;;;;;;;5.57;1.80;;;5.00;99.90;;;;;;5008092;28;20390;-59
2020/12/27 12:04:33;;;;;;;3.50;2.13;;;5.00;99.90;;;;;;5029233;28;20022;-60
2020/12/27 12:06:58;;;;;;;2.50;1.08;;;5.00;99.90;;;;;;5026694;28;20017;-61
2020/12/27 12:09:24;;;;;;;1.50;1.00;;;5.00;99.90;;;;;;5025355;28;20029;-59
2020/12/27 12:11:49;;;;;;;2.92;0.50;;;5.00;99.90;;;;;;5017813;28;20041;-60
2020/12/27 12:14:15;;;;;;;1.98;0.80;;;5.00;99.90;;;;;;5014378;28;20030;-61
2020/12/27 12:16:40;;;;;;;0.70;0.57;;;4.90;99.90;;;;;;5019653;28;20069;-60
2020/12/27 12:19:06;;;;;;;1.40;0.90;;;4.90;99.90;;;;;;5018776;28;20045;-57
2020/12/27 12:21:32;;;;;;;1.58;0.85;;;4.90;99.90;;;;;;5017063;28;20495;-59
2020/12/27 12:23:59;;;;;;;1.02;0.70;;;4.80;99.90;;;;;;5014486;28;20052;-58
2020/12/27 12:26:29;;;;;;;2.45;0.85;;;4.80;99.90;;;;;;5015771;28;20033;-59
2020/12/27 12:28:56;;;;;;;0.82;0.52;;;4.70;99.90;;;;;;5015495;28;20447;-60
2020/12/27 12:31:22;;;;;;;1.83;0.95;;;4.70;99.90;;;;;;5021138;28;20033;-57
2020/12/27 12:33:48;;;;;;;2.38;1.15;;;4.70;99.90;;;;;;5031009;28;20508;-59
2020/12/27 12:36:19;;;;;;;1.40;0.80;;;4.70;99.90;;;;;;5023508;28;20116;-60
2020/12/27 12:38:45;;;;;;;2.08;0.70;;;4.70;99.90;;;;;;5022099;28;20029;-59
2020/12/27 12:41:11;;;;;;;2.22;0.75;;;4.60;99.90;;;;;;5012592;28;20029;-59
2020/12/27 12:43:41;;;;;;;2.78;0.73;;;4.60;99.90;;;;;;5014306;28;20560;-59
2020/12/27 12:46:07;;;;;;;1.38;0.75;;;4.50;99.90;;;;;;5015465;28;20108;-59
2020/12/27 12:48:33;;;;;;;1.80;1.30;;;4.50;99.90;;;;;;5030292;28;20394;-58
2020/12/27 12:50:59;;;;;;;1.10;0.60;;;4.50;99.90;;;;;;5016699;28;20022;-60
2020/12/27 12:53:25;;;;;;;1.75;0.88;;;4.50;99.90;;;;;;5014051;28;20484;-59
2020/12/27 12:55:50;;;;;;;1.20;0.90;;;4.50;99.90;;;;;;5015707;28;20022;-59
2020/12/27 12:58:16;;;;;;;4.47;0.90;;;4.50;99.90;;;;;;5015855;28;20037;-59
2020/12/27 13:00:41;;;;;;;1.58;0.90;;;4.50;99.90;;;;;;5029946;28;20022;-59